createdAt,value
2023-02-02T00:02:07.977Z,11.63
2023-02-02T00:04:36.323Z,19.67
2023-02-02T00:07:05.408Z,16.88
2023-02-02T00:09:36.113Z,17.35
2023-02-02T00:12:03.793Z,15.98
2023-02-02T00:14:31.476Z,22.53
2023-02-02T00:16:59.110Z,16.75
2023-02-02T00:19:27.705Z,21.13
2023-02-02T00:21:55.594Z,21.67
2023-02-02T00:24:23.330Z,24.92
2023-02-02T00:26:51.928Z,23.05
2023-02-02T00:29:20.839Z,14.17
2023-02-02T00:31:48.635Z,26.58
2023-02-02T00:34:16.505Z,13.75
2023-02-02T00:36:44.399Z,20.48
2023-02-02T00:39:12.543Z,25.50
2023-02-02T00:41:40.214Z,19.42
2023-02-02T00:44:26.744Z,20.38
2023-02-02T00:46:54.414Z,15.30
2023-02-02T00:49:22.065Z,27.25
2023-02-02T00:51:49.725Z,23.75
2023-02-02T00:54:17.386Z,24.00
2023-02-02T00:56:45.150Z,21.50
2023-02-02T00:59:12.804Z,24.67
2023-02-02T01:01:40.514Z,22.17
2023-02-02T01:04:08.347Z,13.70
2023-02-02T01:06:36.018Z,24.30
2023-02-02T01:09:03.954Z,26.08
2023-02-02T01:11:31.657Z,15.70
2023-02-02T01:13:59.403Z,24.63
2023-02-02T01:16:27.139Z,35.03
2023-02-02T01:18:54.989Z,22.47
2023-02-02T01:21:22.777Z,20.90
2023-02-02T01:23:50.615Z,20.13
2023-02-02T01:26:18.459Z,25.70
2023-02-02T01:28:46.259Z,25.20
2023-02-02T01:31:20.716Z,23.27
2023-02-02T01:33:49.639Z,27.45
2023-02-02T01:36:18.292Z,23.77
2023-02-02T01:38:45.987Z,26.35
2023-02-02T01:41:14.477Z,27.25
2023-02-02T01:43:45.101Z,23.43
2023-02-02T01:46:13.511Z,27.52
2023-02-02T01:48:41.884Z,19.75
2023-02-02T01:51:12.532Z,16.80
2023-02-02T01:53:40.234Z,21.70
2023-02-02T01:56:08.122Z,19.55
2023-02-02T01:58:39.090Z,25.05
2023-02-02T02:01:06.814Z,18.60
2023-02-02T02:03:35.032Z,24.75
2023-02-02T02:06:05.779Z,31.45
2023-02-02T02:08:44.386Z,16.53
2023-02-02T02:11:12.114Z,11.82
2023-02-02T02:13:58.677Z,19.77
2023-02-02T02:16:44.951Z,22.38
2023-02-02T02:19:12.714Z,25.73
2023-02-02T02:21:58.832Z,31.38
2023-02-02T02:24:59.471Z,19.23
2023-02-02T02:27:46.007Z,20.90
2023-02-02T02:30:16.923Z,25.88
2023-02-02T02:32:47.389Z,13.13
2023-02-02T02:35:18.473Z,19.97
2023-02-02T02:37:50.603Z,28.90
2023-02-02T02:40:30.418Z,15.57
2023-02-02T02:43:02.172Z,21.45
2023-02-02T02:45:29.973Z,21.83
2023-02-02T02:47:57.671Z,27.58
2023-02-02T02:50:25.404Z,21.27
2023-02-02T02:53:04.704Z,29.37
2023-02-02T02:55:36.301Z,18.73
2023-02-02T02:58:06.024Z,23.63
2023-02-02T03:00:33.964Z,23.17
2023-02-02T03:03:01.654Z,46.03
2023-02-02T03:05:35.345Z,34.20
2023-02-02T03:08:06.039Z,26.10
2023-02-02T03:10:33.811Z,21.30
2023-02-02T03:13:01.543Z,29.77
2023-02-02T03:15:29.323Z,25.33
2023-02-02T03:17:57.062Z,27.23
2023-02-02T03:20:24.780Z,32.40
2023-02-02T03:22:52.612Z,27.00
2023-02-02T03:25:20.371Z,35.97
2023-02-02T03:27:48.123Z,25.40
2023-02-02T03:30:16.036Z,32.50
2023-02-02T03:32:44.147Z,31.15
2023-02-02T03:35:11.899Z,33.63
2023-02-02T03:37:39.707Z,24.38
2023-02-02T03:40:07.704Z,20.90
2023-02-02T03:42:35.388Z,23.70
2023-02-02T03:45:03.178Z,21.00
2023-02-02T03:47:30.942Z,45.28
2023-02-02T03:49:58.737Z,25.17
2023-02-02T03:52:26.584Z,22.15
2023-02-02T03:54:54.522Z,27.48
2023-02-02T03:57:22.326Z,18.55
2023-02-02T03:59:50.083Z,23.43
2023-02-02T04:02:17.735Z,15.30
2023-02-02T04:04:45.482Z,24.05
2023-02-02T04:07:13.164Z,23.20
2023-02-02T04:09:40.889Z,25.10
2023-02-02T04:12:08.575Z,23.38
2023-02-02T04:14:36.307Z,21.80
2023-02-02T04:17:04.061Z,26.80
2023-02-02T04:19:31.808Z,18.75
2023-02-02T04:21:59.489Z,20.77
2023-02-02T04:24:27.199Z,26.53
2023-02-02T04:26:54.958Z,27.30
2023-02-02T04:29:23.307Z,17.98
2023-02-02T04:31:51.035Z,14.20
2023-02-02T04:34:18.807Z,12.13
2023-02-02T04:36:46.570Z,11.85
2023-02-02T04:39:17.517Z,8.60
2023-02-02T04:41:45.223Z,16.10
2023-02-02T04:44:16.329Z,18.92
2023-02-02T04:46:44.459Z,6.60
2023-02-02T04:49:12.403Z,5.17
2023-02-02T04:51:40.510Z,10.20
2023-02-02T04:54:08.166Z,13.48
2023-02-02T04:56:36.027Z,8.27
2023-02-02T04:59:03.774Z,19.48
2023-02-02T05:01:31.581Z,10.02
2023-02-02T05:03:59.353Z,13.23
2023-02-02T05:06:27.038Z,7.18
2023-02-02T05:08:54.773Z,4.18
2023-02-02T05:11:22.978Z,9.10
2023-02-02T05:13:51.474Z,12.33
2023-02-02T05:16:19.353Z,16.15
2023-02-02T05:18:50.826Z,13.18
2023-02-02T05:21:18.585Z,11.70
2023-02-02T05:23:46.376Z,9.10
2023-02-02T05:26:17.685Z,12.18
2023-02-02T05:28:46.320Z,15.60
2023-02-02T05:31:14.035Z,13.88
2023-02-02T05:33:41.709Z,15.70
2023-02-02T05:36:09.476Z,14.65
2023-02-02T05:38:37.183Z,7.83
2023-02-02T05:41:05.075Z,8.50
2023-02-02T05:43:33.031Z,18.38
2023-02-02T05:46:00.837Z,11.50
2023-02-02T05:48:28.629Z,10.00
2023-02-02T05:51:13.488Z,8.75
2023-02-02T05:53:41.244Z,6.30
2023-02-02T05:56:09.040Z,10.15
2023-02-02T05:58:36.678Z,8.75
2023-02-02T06:01:04.474Z,8.77
2023-02-02T06:03:32.256Z,15.30
2023-02-02T06:06:00.139Z,7.72
2023-02-02T06:08:27.901Z,6.55
2023-02-02T06:10:55.664Z,7.63
2023-02-02T06:13:23.452Z,9.45
2023-02-02T06:15:51.760Z,6.78
2023-02-02T06:18:19.496Z,6.80
2023-02-02T06:20:47.793Z,8.70
2023-02-02T06:23:16.622Z,10.40
2023-02-02T06:25:44.269Z,2.60
2023-02-02T06:28:12.091Z,9.60
2023-02-02T06:30:40.534Z,5.32
2023-02-02T06:33:09.140Z,1.48
2023-02-02T06:35:36.890Z,5.80
2023-02-02T06:38:04.529Z,7.13
2023-02-02T06:40:32.233Z,3.90
2023-02-02T06:43:00.310Z,10.03
2023-02-02T06:45:28.109Z,5.93
2023-02-02T06:47:56.231Z,6.15
2023-02-02T06:50:24.681Z,5.35
2023-02-02T06:52:52.572Z,12.10
2023-02-02T06:55:20.318Z,11.23
2023-02-02T06:57:48.004Z,10.93
2023-02-02T07:00:15.964Z,4.33
2023-02-02T07:02:46.709Z,5.25
2023-02-02T07:05:14.591Z,11.90
2023-02-02T07:07:42.328Z,4.60
2023-02-02T07:10:10.268Z,3.92
2023-02-02T07:12:57.969Z,15.30
2023-02-02T07:15:25.916Z,11.38
2023-02-02T07:17:55.309Z,7.93
2023-02-02T07:20:23.056Z,8.55
2023-02-02T07:22:50.842Z,10.63
2023-02-02T07:25:18.907Z,7.33
2023-02-02T07:27:48.155Z,6.03
2023-02-02T07:30:17.226Z,8.82
2023-02-02T07:32:48.685Z,16.13
2023-02-02T07:35:16.985Z,19.70
2023-02-02T07:37:44.872Z,7.30
2023-02-02T07:40:12.757Z,8.05
2023-02-02T07:42:40.569Z,10.67
2023-02-02T07:45:24.644Z,6.72
2023-02-02T07:47:58.742Z,14.27
2023-02-02T07:50:26.608Z,4.10
2023-02-02T07:52:54.422Z,11.55
2023-02-02T07:55:22.182Z,14.32
2023-02-02T07:57:49.968Z,6.93
2023-02-02T08:00:17.988Z,22.15
2023-02-02T08:02:45.841Z,8.55
2023-02-02T08:05:14.135Z,12.90
2023-02-02T08:07:41.941Z,5.60
2023-02-02T08:10:09.986Z,10.63
2023-02-02T08:12:37.713Z,11.43
2023-02-02T08:15:05.570Z,9.10
2023-02-02T08:17:33.427Z,14.60
2023-02-02T08:20:01.259Z,9.63
2023-02-02T08:22:29.048Z,20.87
2023-02-02T08:24:56.855Z,16.45
2023-02-02T08:27:24.520Z,29.67
2023-02-02T08:29:52.323Z,18.77
2023-02-02T08:32:20.054Z,23.47
2023-02-02T08:34:49.350Z,16.85
2023-02-02T08:37:17.028Z,13.73
2023-02-02T08:39:47.812Z,11.40
2023-02-02T08:42:15.752Z,10.60
2023-02-02T08:45:59.713Z,10.32
2023-02-02T08:47:31.084Z,11.93
2023-02-02T08:49:58.918Z,14.40
2023-02-02T08:52:26.632Z,12.02
2023-02-02T08:54:54.359Z,13.93
2023-02-02T08:57:22.182Z,11.27
2023-02-02T08:59:49.921Z,11.10
2023-02-02T09:02:18.773Z,9.13
2023-02-02T09:04:48.413Z,14.83
2023-02-02T09:07:16.033Z,7.35
2023-02-02T09:09:43.703Z,8.35
2023-02-02T09:12:11.501Z,12.10
2023-02-02T09:14:39.205Z,9.38
2023-02-02T09:17:06.850Z,9.55
2023-02-02T09:19:36.051Z,6.05
2023-02-02T09:22:03.643Z,10.23
2023-02-02T09:24:31.298Z,10.10
2023-02-02T09:26:59.006Z,6.90
2023-02-02T09:29:26.726Z,5.90
2023-02-02T09:31:54.468Z,8.27
2023-02-02T09:34:22.247Z,7.65
2023-02-02T09:36:50.038Z,8.27
2023-02-02T09:39:19.617Z,10.95
2023-02-02T09:42:00.452Z,4.95
2023-02-02T09:44:40.381Z,7.65
2023-02-02T09:47:10.856Z,8.80
2023-02-02T09:49:40.423Z,7.10
2023-02-02T09:52:15.135Z,5.85
2023-02-02T09:54:49.130Z,9.90
2023-02-02T09:57:20.130Z,5.07
2023-02-02T09:59:48.275Z,9.15
2023-02-02T10:02:23.473Z,6.20
2023-02-02T10:04:52.669Z,10.85
2023-02-02T10:07:21.323Z,10.38
2023-02-02T10:09:54.308Z,7.07
2023-02-02T10:12:33.384Z,3.77
2023-02-02T10:15:13.261Z,12.25
2023-02-02T10:17:59.044Z,11.90
2023-02-02T10:20:31.671Z,8.47
2023-02-02T10:23:00.002Z,5.47
2023-02-02T10:25:28.388Z,11.68
2023-02-02T10:28:16.294Z,6.17
2023-02-02T10:30:58.364Z,7.45
2023-02-02T10:33:41.459Z,5.53
2023-02-02T10:36:16.391Z,6.55
2023-02-02T10:38:46.906Z,7.53
2023-02-02T10:41:25.210Z,9.88
2023-02-02T10:43:57.530Z,7.57
2023-02-02T10:46:44.056Z,5.73
2023-02-02T10:49:38.166Z,10.48
2023-02-02T10:52:16.955Z,11.05
2023-02-02T10:54:59.745Z,7.33
2023-02-02T10:57:35.402Z,6.95
2023-02-02T11:00:23.408Z,10.75
2023-02-02T11:02:51.858Z,7.85
2023-02-02T11:05:42.703Z,7.70
2023-02-02T11:08:14.361Z,10.00
2023-02-02T11:10:42.602Z,9.30
2023-02-02T11:13:11.634Z,11.57
2023-02-02T11:15:39.437Z,7.43
2023-02-02T11:18:15.314Z,9.27
2023-02-02T11:20:43.185Z,8.20
2023-02-02T11:23:10.897Z,10.73
2023-02-02T11:25:39.380Z,7.50
2023-02-02T11:28:22.873Z,4.57
2023-02-02T11:30:52.762Z,9.20
2023-02-02T11:33:33.804Z,3.83
2023-02-02T11:36:01.761Z,9.02
2023-02-02T11:38:29.576Z,6.73
2023-02-02T11:41:04.085Z,4.50
2023-02-02T11:44:06.417Z,7.75
2023-02-02T11:46:35.339Z,7.03
2023-02-02T11:49:04.364Z,12.25
2023-02-02T11:51:32.139Z,5.45
2023-02-02T11:54:08.599Z,5.88
2023-02-02T11:56:36.551Z,5.00
2023-02-02T11:59:04.819Z,8.05
2023-02-02T12:01:44.218Z,5.07
2023-02-02T12:04:18.443Z,5.17
2023-02-02T12:06:46.331Z,3.55
2023-02-02T12:09:15.146Z,3.90
2023-02-02T12:12:02.484Z,4.33
2023-02-02T12:14:38.951Z,4.68
2023-02-02T12:17:12.440Z,1.77
2023-02-02T12:19:49.144Z,7.60
2023-02-02T12:22:16.875Z,4.47
2023-02-02T12:24:47.472Z,2.72
2023-02-02T12:27:22.389Z,3.67
2023-02-02T12:30:11.158Z,8.47
2023-02-02T12:32:58.360Z,9.30
2023-02-02T12:35:41.461Z,4.32
2023-02-02T12:38:09.214Z,2.73
2023-02-02T12:40:37.114Z,3.00
2023-02-02T12:43:07.802Z,2.65
2023-02-02T12:45:41.344Z,4.72
2023-02-02T12:48:27.785Z,9.07
2023-02-02T12:50:58.606Z,5.05
2023-02-02T12:53:29.194Z,5.78
2023-02-02T12:56:10.267Z,5.07
2023-02-02T12:58:39.847Z,9.13
2023-02-02T13:01:22.947Z,2.45
2023-02-02T13:03:53.454Z,4.53
2023-02-02T13:06:36.089Z,6.55
2023-02-02T13:09:22.650Z,4.93
2023-02-02T13:12:09.342Z,3.38
2023-02-02T13:14:38.293Z,3.37
2023-02-02T13:17:29.303Z,2.55
2023-02-02T13:19:58.993Z,2.25
2023-02-02T13:22:27.987Z,5.33
2023-02-02T13:25:00.081Z,3.10
2023-02-02T13:27:28.643Z,0.85
2023-02-02T13:30:15.854Z,4.97
2023-02-02T13:32:44.055Z,2.83
2023-02-02T13:35:32.499Z,3.17
2023-02-02T13:38:05.914Z,1.92
2023-02-02T13:40:35.040Z,3.67
2023-02-02T13:43:13.124Z,2.63
2023-02-02T13:45:46.931Z,3.65
2023-02-02T13:48:26.758Z,1.57
2023-02-02T13:51:00.293Z,1.50
2023-02-02T13:53:48.080Z,4.88
2023-02-02T13:56:31.727Z,0.90
2023-02-02T13:59:02.389Z,2.97
2023-02-02T14:01:30.093Z,2.85
2023-02-02T14:03:58.126Z,0.10
2023-02-02T14:06:26.625Z,1.80
2023-02-02T14:09:01.357Z,1.20
2023-02-02T14:11:32.668Z,2.10
2023-02-02T14:14:38.968Z,0.80
2023-02-02T14:17:19.500Z,0.38
2023-02-02T14:19:56.780Z,4.28
2023-02-02T14:22:41.704Z,0.87
2023-02-02T14:25:28.098Z,3.22
2023-02-02T14:27:59.367Z,5.28
2023-02-02T14:30:32.854Z,1.70
2023-02-02T14:33:19.237Z,4.37
2023-02-02T14:35:47.075Z,2.70
2023-02-02T14:38:33.553Z,4.22
2023-02-02T14:41:10.319Z,5.03
2023-02-02T14:43:45.762Z,1.20
2023-02-02T14:46:13.685Z,1.98
2023-02-02T14:48:48.267Z,0.60
2023-02-02T14:51:19.858Z,0.65
2023-02-02T14:53:48.607Z,2.30
2023-02-02T14:56:16.761Z,2.58
2023-02-02T14:58:48.344Z,7.73
2023-02-02T15:01:25.141Z,5.20
2023-02-02T15:03:58.809Z,0.80
2023-02-02T15:06:29.301Z,1.50
2023-02-02T15:09:15.656Z,6.20
2023-02-02T15:12:04.644Z,2.78
2023-02-02T15:14:33.908Z,5.60
2023-02-02T15:17:07.737Z,5.90
2023-02-02T15:19:37.154Z,3.15
2023-02-02T15:22:23.938Z,4.97
2023-02-02T15:24:51.631Z,4.20
2023-02-02T15:27:19.749Z,1.85
2023-02-02T15:29:48.153Z,3.88
2023-02-02T15:32:20.607Z,2.57
2023-02-02T15:34:49.604Z,4.32
2023-02-02T15:37:20.673Z,1.40
2023-02-02T15:39:49.248Z,3.87
2023-02-02T15:42:35.835Z,2.25
2023-02-02T15:45:03.551Z,4.00
2023-02-02T15:47:39.673Z,4.78
2023-02-02T15:50:17.927Z,4.20
2023-02-02T15:52:50.311Z,3.20
2023-02-02T15:55:21.419Z,3.17
2023-02-02T15:58:03.637Z,4.54
2023-02-02T16:00:31.528Z,2.83
2023-02-02T16:03:13.226Z,3.33
2023-02-02T16:05:51.027Z,2.72
2023-02-02T16:08:26.381Z,3.60
2023-02-02T16:11:06.267Z,5.82
2023-02-02T16:13:33.978Z,5.37
2023-02-02T16:16:02.815Z,15.68
2023-02-02T16:18:30.787Z,5.55
2023-02-02T16:20:58.829Z,7.60
2023-02-02T16:23:31.196Z,12.32
2023-02-02T16:25:59.580Z,9.07
2023-02-02T16:28:27.269Z,11.30
2023-02-02T16:30:55.036Z,12.38
2023-02-02T16:33:41.487Z,15.70
2023-02-02T16:36:24.494Z,7.40
2023-02-02T16:38:53.054Z,11.97
2023-02-02T16:41:33.101Z,11.00
2023-02-02T16:44:19.482Z,8.63
2023-02-02T16:46:48.146Z,11.67
2023-02-02T16:49:19.316Z,11.43
2023-02-02T16:51:47.728Z,8.75
2023-02-02T16:54:19.036Z,9.17
2023-02-02T16:56:51.162Z,10.50
2023-02-02T16:59:30.868Z,11.20
2023-02-02T17:02:01.932Z,17.95
2023-02-02T17:04:30.427Z,7.47
2023-02-02T17:06:59.782Z,15.77
2023-02-02T17:09:31.901Z,15.45
2023-02-02T17:12:03.033Z,25.90
2023-02-02T17:14:34.977Z,21.63
2023-02-02T17:17:06.603Z,16.33
2023-02-02T17:19:40.589Z,18.43
2023-02-02T17:22:08.756Z,15.48
2023-02-02T17:24:36.486Z,17.30
2023-02-02T17:27:04.744Z,17.05
2023-02-02T17:29:32.466Z,11.40
2023-02-02T17:32:01.306Z,20.50
2023-02-02T17:34:30.876Z,22.42
2023-02-02T17:37:00.412Z,17.93
2023-02-02T17:39:30.088Z,21.67
2023-02-02T17:41:57.973Z,19.13
2023-02-02T17:44:25.835Z,13.07
2023-02-02T17:46:53.832Z,26.58
2023-02-02T17:49:21.612Z,24.85
2023-02-02T17:51:50.842Z,23.48
2023-02-02T17:54:18.722Z,9.00
2023-02-02T17:56:47.390Z,12.07
2023-02-02T17:59:15.199Z,30.88
2023-02-02T18:01:43.062Z,27.03
2023-02-02T18:04:12.079Z,13.85
2023-02-02T18:06:40.364Z,18.08
2023-02-02T18:09:08.045Z,14.30
2023-02-02T18:11:35.764Z,17.83
2023-02-02T18:14:03.439Z,19.17
2023-02-02T18:16:31.196Z,15.18
2023-02-02T18:18:58.891Z,12.67
2023-02-02T18:21:26.734Z,23.63
2023-02-02T18:23:54.627Z,10.40
2023-02-02T18:26:22.676Z,17.07
2023-02-02T18:28:50.560Z,22.73
2023-02-02T18:31:19.718Z,15.35
2023-02-02T18:33:47.724Z,15.93
2023-02-02T18:36:19.864Z,11.60
2023-02-02T18:38:48.668Z,13.10
2023-02-02T18:41:16.855Z,14.50
2023-02-02T18:43:45.629Z,16.53
2023-02-02T18:46:18.662Z,15.50
2023-02-02T18:48:46.419Z,15.55
2023-02-02T18:51:16.174Z,16.97
2023-02-02T18:53:45.275Z,22.15
2023-02-02T18:56:13.440Z,15.85
2023-02-02T18:58:41.216Z,16.03
2023-02-02T19:01:09.046Z,12.57
2023-02-02T19:03:36.949Z,25.92
2023-02-02T19:06:24.077Z,15.68
2023-02-02T19:08:51.834Z,20.30
2023-02-02T19:11:20.628Z,18.50
2023-02-02T19:13:48.476Z,16.35
2023-02-02T19:16:19.148Z,12.27
2023-02-02T19:18:46.822Z,13.32
2023-02-02T19:21:15.596Z,16.38
2023-02-02T19:23:45.776Z,14.47
2023-02-02T19:26:24.712Z,14.45
2023-02-02T19:28:52.798Z,23.52
2023-02-02T19:31:20.685Z,17.70
2023-02-02T19:33:53.256Z,12.67
2023-02-02T19:36:22.082Z,18.25
2023-02-02T19:38:53.180Z,21.27
2023-02-02T19:41:21.686Z,18.43
2023-02-02T19:43:49.878Z,15.05
2023-02-02T19:46:20.692Z,18.65
2023-02-02T19:48:50.741Z,10.17
2023-02-02T19:51:36.746Z,17.38
2023-02-02T19:54:04.689Z,9.27
2023-02-02T19:56:36.290Z,12.07
2023-02-02T19:59:04.202Z,14.40
2023-02-02T20:01:34.938Z,14.55
2023-02-02T20:04:04.293Z,12.13
2023-02-02T20:06:33.158Z,12.00
2023-02-02T20:09:01.345Z,5.65
2023-02-02T20:11:43.139Z,14.77
2023-02-02T20:14:19.747Z,7.20
2023-02-02T20:16:49.025Z,8.57
2023-02-02T20:19:25.707Z,10.30
2023-02-02T20:21:53.837Z,6.15
2023-02-02T20:24:25.459Z,5.30
2023-02-02T20:26:54.666Z,10.25
2023-02-02T20:29:26.588Z,6.93
2023-02-02T20:31:55.231Z,13.13
2023-02-02T20:34:23.067Z,11.43
2023-02-02T20:36:51.040Z,10.95
2023-02-02T20:39:29.361Z,9.03
2023-02-02T20:42:00.200Z,5.53
2023-02-02T20:44:28.457Z,8.45
2023-02-02T20:46:56.462Z,5.45
2023-02-02T20:49:26.972Z,6.50
2023-02-02T20:51:57.630Z,7.65
2023-02-02T20:54:25.405Z,9.45
2023-02-02T20:56:54.467Z,8.03
2023-02-02T20:59:25.926Z,8.70
2023-02-02T21:01:53.780Z,10.30
2023-02-02T21:04:21.767Z,7.80
2023-02-02T21:06:49.534Z,2.13
2023-02-02T21:09:17.437Z,16.30
2023-02-02T21:11:45.203Z,9.88
2023-02-02T21:14:12.963Z,9.07
2023-02-02T21:16:40.709Z,4.32
2023-02-02T21:19:08.432Z,6.88
2023-02-02T21:21:36.334Z,4.27
2023-02-02T21:24:04.479Z,5.32
2023-02-02T21:26:32.262Z,8.60
2023-02-02T21:29:00.033Z,6.83
2023-02-02T21:31:27.971Z,8.50
2023-02-02T21:33:55.812Z,5.47
2023-02-02T21:36:23.451Z,6.28
2023-02-02T21:38:51.156Z,5.60
2023-02-02T21:41:19.003Z,5.45
2023-02-02T21:43:46.747Z,11.93
2023-02-02T21:46:21.198Z,8.70
2023-02-02T21:48:48.977Z,7.18
2023-02-02T21:51:30.302Z,3.22
2023-02-02T21:53:58.093Z,4.87
2023-02-02T21:56:29.669Z,7.75
2023-02-02T21:59:03.236Z,9.32
2023-02-02T22:01:34.905Z,6.18
2023-02-02T22:04:02.650Z,7.43
2023-02-02T22:06:36.492Z,6.05
2023-02-02T22:09:13.122Z,10.75
2023-02-02T22:11:40.810Z,3.37
2023-02-02T22:14:21.614Z,5.10
2023-02-02T22:16:57.602Z,10.38
2023-02-02T22:19:27.741Z,15.00
2023-02-02T22:22:00.357Z,8.73
2023-02-02T22:24:27.985Z,3.95
2023-02-02T22:26:55.724Z,15.18
2023-02-02T22:29:24.679Z,12.07
2023-02-02T22:31:52.438Z,11.63
2023-02-02T22:34:20.194Z,10.13
2023-02-02T22:36:48.114Z,12.00
2023-02-02T22:39:15.826Z,9.50
2023-02-02T22:41:44.210Z,4.63
2023-02-02T22:44:11.970Z,13.53
2023-02-02T22:46:39.711Z,12.32
2023-02-02T22:49:07.385Z,8.65
2023-02-02T22:51:35.068Z,9.65
2023-02-02T22:54:02.720Z,5.87
2023-02-02T22:56:30.390Z,9.52
2023-02-02T22:58:58.046Z,12.38
2023-02-02T23:01:25.753Z,4.17
2023-02-02T23:03:53.463Z,9.57
2023-02-02T23:06:21.240Z,7.97
2023-02-02T23:08:48.876Z,8.30
2023-02-02T23:11:16.597Z,5.38
2023-02-02T23:13:44.204Z,7.03
2023-02-02T23:16:12.090Z,5.07
2023-02-02T23:18:39.762Z,13.60
2023-02-02T23:21:07.464Z,4.85
2023-02-02T23:23:35.136Z,2.58
2023-02-02T23:26:02.874Z,5.97
2023-02-02T23:28:30.600Z,4.72
2023-02-02T23:30:59.346Z,8.45
2023-02-02T23:33:27.237Z,15.43
2023-02-02T23:35:54.926Z,4.82
2023-02-02T23:38:22.664Z,11.07
2023-02-02T23:40:50.312Z,5.35
2023-02-02T23:43:18.015Z,8.20
2023-02-02T23:45:45.950Z,8.30
2023-02-02T23:48:13.663Z,5.88
2023-02-02T23:50:41.602Z,7.73
2023-02-02T23:53:09.707Z,9.93
2023-02-02T23:55:37.544Z,13.48
2023-02-02T23:58:05.204Z,8.60
